x

South Hatteras - 225 South Of Cape Hatteras (41002) Wave Buoy

10:50pm - Wed 1st Apr 2015 All times are EDT. -4 hours from GMT.

  • Sig Wave height 7.2ft
  • Swell Direction
  • Peak Period 9s
  • Average Period 6s
  • Wind
    22mph, 27mph gusts
  • Sea Temp 69°f
  • Air Temp 64°f
  • Sea Pressure 1022.9mb
  • South Hatteras - 225 South Of Cape Hatteras
  • South Hatteras - 225 South Of Cape Hatteras

More Historic Weather Station data

Upgrade to MSW Pro to gain access to the past 30 days of data for over 8000 Wavebouys and Weather Stations around the globe.

Join Pro

Comparision Forecast

View Surf forecast
   
Wed 04/01 10:50pm 7ft 9s 6s 22 27 mph 1022.9mb 69f 64f
9:50pm 7ft 8s 6s 22 27 mph 1022.1mb 69f 65f
8:50pm 7ft 8s 6s 20 25 mph 1020.9mb 69f 65f
7:50pm 6ft 8s 5s 20 25 mph 1019.7mb 69f 65f
6:50pm 6ft 7s 5s 22 25 mph 1018.6mb 69f 66f
5:50pm 6ft 8s 5s 22 25 mph 1017.6mb 69f 66f
4:50pm 6ft 8s 5s 25 27 mph 1016.5mb 69f 67f
3:50pm 6ft 8s 6s 22 27 mph 1016.2mb 69f 68f
2:50pm 6.5ft 7s 6s 13 16 mph 1016.3mb 69f 70f
1:50pm 8ft 8s 6s 11
mph
1016.3mb 69f 70f
12:50pm 7ft 7s 6s 7 9 mph 1016.1mb 69f 69f
11:50am 7.5ft 8s 6s 13 25 mph 1016.4mb 69f 66f
10:50am 7ft 7s 6s 22 27 mph 1015.3mb 69f 69f
9:50am 7ft 7s 6s 18 22 mph 1015.4mb 69f 69f
8:50am 6ft 7s 6s 18 22 mph 1015.4mb 69f 67f
7:50am 6.5ft 7s 6s 18 25 mph 1015mb 69f 65f
6:50am 7ft 7s 6s 29 38 mph 1015.5mb 69f 64f
5:50am 7ft 8s 6s 25 36 mph 1013.5mb 68f 69f
4:50am 7ft 7s 6s 18 22 mph 1012.9mb 68f 69f
3:50am 6.5ft 7s 6s 18 20 mph 1013.8mb 68f 70f
2:50am 6ft 7s 6s 20 25 mph 1014.6mb 68f 70f
1:50am 6ft 7s 5s 20 25 mph 1014.9mb 68f 70f
12:50am 7ft 7s 6s 20 25 mph 1015.2mb 68f 69f
Tue 03/31 11:50pm 5.5ft 6s 5s 20 25 mph 1015.1mb 68f 69f
10:50pm 5ft 7s 5s 20 22 mph 1015.5mb 68f 70f
9:50pm  -   -   -  18 22 mph 1015.8mb 69f 69f
8:50pm 4.5ft 6s 5s 20 22 mph 1015.8mb 69f 69f
7:50pm 5ft 7s 5s 20 22 mph 1015.5mb 69f 69f
6:50pm 5ft 7s 5s 20 22 mph 1015.4mb 69f 68f
5:50pm 5ft 7s 5s 18 22 mph 1015.6mb 69f 68f
4:50pm 4.5ft 7s 6s 18 22 mph 1016mb 69f 68f
3:50pm 4.5ft 8s 6s 18 20 mph 1016.1mb 69f 68f
2:50pm 5ft 8s 6s 16 18 mph 1016.9mb 69f 67f
1:50pm 5ft 8s 6s 11 13 mph 1017.9mb 69f 67f
12:50pm 5.5ft 8s 6s 9 13 mph 1018.5mb 69f 67f
11:50am 5.5ft 8s 6s 7 9 mph 1018.8mb 69f 67f
10:50am 6.5ft 8s 6s 2 4 mph 1019mb 69f 67f
9:50am 6ft 8s 6s 2 7 mph 1019.1mb 68f 67f
8:50am 6.5ft 8s 6s 9 11 mph 1019.2mb 68f 67f
7:50am 7ft 8s 6s 13 18 mph 1018.5mb 68f 67f
6:50am 8ft 8s 6s 18 22 mph 1017.3mb 68f 67f
5:50am 8ft 8s 6s 18 22 mph 1016.9mb 68f 67f
4:50am 10ft 9s 7s 20 25 mph 1016.4mb 68f 67f
3:50am 10ft 8s 6s 22 25 mph 1016.4mb 68f 68f
2:50am 10ft 8s 6s 25 29 mph 1016.9mb 68f 68f
1:50am 9ft 8s 6s 25 29 mph 1017.1mb 68f 69f
12:50am 10ft 8s 6s 25 29 mph 1017.4mb 68f 69f
Mon 03/30 11:50pm 9ft 8s 6s 25 29 mph 1017.6mb 68f 69f
10:50pm 8ft 7s 6s 25 31 mph 1017.9mb 68f 67f
9:50pm 7ft 7s 6s 29 34 mph 1018mb 68f 67f
8:50pm 7ft 7s 6s 27 31 mph 1018mb 68f 66f
7:50pm 6.5ft 7s 6s 25 29 mph 1018.2mb 68f 65f
6:50pm 6ft 6s 6s 25 29 mph 1018.5mb 68f 64f
5:50pm 6ft 6s 6s 25 31 mph 1019mb 68f 64f
4:50pm 5.5ft 10s 6s 22 29 mph 1019.9mb 68f 63f
3:50pm 5.5ft 10s 6s 22 31 mph 1020.7mb 68f 62f
2:50pm 5ft 10s 6s 20 27 mph 1021.9mb 68f 61f
1:50pm 4.5ft 10s 6s 18 22 mph 1023mb 68f 60f
12:50pm 5ft 10s 7s 16 20 mph 1024.2mb 68f 58f
11:50am 5ft 11s 7s 13 18 mph 1025.3mb 68f 58f
10:50am 5ft 10s 7s 11 16 mph 1026mb 68f 57f
9:50am 5ft 10s 7s 7 11 mph 1026mb 68f 56f
8:50am 5ft 10s 7s 7 11 mph 1025.6mb 67f 56f
7:50am 5ft 9s 7s 2 7 mph 1025.8mb 67f 55f
6:50am 5ft 9s 7s 2 4 mph 1025.6mb 67f 54f
5:50am 5.5ft 8s 7s 4 9 mph 1025.4mb 67f 54f
4:50am 5ft 9s 6s 4 9 mph 1025.1mb 67f 54f
3:50am 5ft 9s 6s 4 9 mph 1025.4mb 67f 53f
2:50am 5.5ft 8s 6s  -  2 mph 1025.8mb 67f 53f
1:50am 6ft 8s 7s 7 11 mph 1026.6mb 67f 53f
12:50am 5ft 9s 6s 7 13 mph 1027.3mb 67f 53f
Sun 03/29 11:50pm 5.5ft 9s 6s 9 16 mph 1027.4mb 67f 53f
10:50pm 6ft 9s 6s 16 18 mph 1027.7mb 68f 53f
9:50pm 6ft 8s 6s 16 20 mph 1028mb 68f 53f
8:50pm 6.5ft 8s 6s 16 20 mph 1027.7mb 68f 53f
7:50pm 6.5ft 8s 6s 20 25 mph 1026.8mb 68f 52f
6:50pm 6ft 7s 6s 18 25 mph 1027mb 68f 53f
5:50pm 7ft 7s 6s 20 25 mph 1025.9mb 68f 53f
4:50pm 7.5ft 7s 6s 22 27 mph 1025.4mb 68f 53f
3:50pm 8ft 8s 6s 20 27 mph 1025.6mb 68f 53f
2:50pm 8ft 8s 6s 22 27 mph 1026.2mb 68f 54f
1:50pm 8ft 8s 6s 27 34 mph 1026.3mb 68f 54f
12:50pm 9ft 8s 6s 27 34 mph 1026.4mb 68f 54f
11:50am 9.5ft 7s 6s 27 34 mph 1026.1mb 68f 55f
10:50am 10ft 7s 6s 29 36 mph 1025.9mb 68f 56f
9:50am 10ft 8s 6s 27 34 mph 1025.2mb 68f 56f
8:50am 10ft 8s 6s 29 36 mph 1024.1mb 68f 56f
7:50am 9.5ft 8s 6s 27 31 mph 1023.3mb 68f 56f
6:50am 8ft 7s 6s 22 27 mph 1022.5mb 68f 56f
5:50am 9ft 8s 7s 20 25 mph 1021.5mb 68f 54f
4:50am 8.5ft 8s 6s 25 29 mph 1020.3mb 68f 55f
3:50am 9.5ft 8s 7s 18 25 mph 1019.8mb 68f 58f